Time;durP1;ratioP1;P1;durP2;ratioP2;P2;SDS_P1;SDS_P2;PMS_P1;PMS_P2;Temp;Humidity;BMP_temperature;BMP_pressure;BME280_temperature;BME280_humidity;BME280_pressure;Samples;Min_cycle;Max_cycle;Signal;HPM_P1;HPM_P2
2023/12/20 00:00:01;;;;;;;12.63;6.60;;;;;;;11.72;60.64;100790.63;688502;28;1058;-89
2023/12/20 00:00:24;;;;;;;14.50;6.80;;;;;;;11.75;60.76;100794.22;690781;28;1457;-89
2023/12/20 00:00:44;;;;;;;14.27;7.70;;;;;;;11.68;60.84;100789.69;685261;28;1450;-89
2023/12/20 00:01:05;;;;;;;14.03;8.07;;;;;;;11.70;60.87;100789.72;685709;28;1240;-90
2023/12/20 00:01:26;;;;;;;13.18;7.97;;;;;;;11.77;60.80;100797.78;690361;28;1522;-90
2023/12/20 00:01:47;;;;;;;12.70;7.80;;;;;;;11.70;60.83;100784.50;691009;28;1299;-90
2023/12/20 00:02:08;;;;;;;12.55;7.78;;;;;;;11.79;60.92;100801.28;690927;28;1902;-90
2023/12/20 00:02:28;;;;;;;11.25;7.65;;;;;;;11.75;60.92;100791.59;685378;28;1596;-90
2023/12/20 00:02:49;;;;;;;10.25;7.07;;;;;;;11.74;60.44;100784.59;683549;28;1439;-90
2023/12/20 00:03:10;;;;;;;10.47;7.30;;;;;;;11.67;60.74;100782.69;687109;28;1255;-89
2023/12/20 00:03:32;;;;;;;11.07;7.43;;;;;;;11.71;60.42;100792.38;688347;28;1339;-89
2023/12/20 00:03:53;;;;;;;11.60;7.77;;;;;;;11.75;60.78;100802.06;688210;28;1175;-90
2023/12/20 00:04:13;;;;;;;14.18;7.63;;;;;;;11.70;60.73;100794.97;688197;28;1262;-90
2023/12/20 00:04:34;;;;;;;15.18;7.90;;;;;;;11.64;60.51;100782.59;685713;28;1201;-90
2023/12/20 00:04:55;;;;;;;15.97;7.43;;;;;;;11.67;60.79;100795.75;688370;28;1209;-89
2023/12/20 00:05:15;;;;;;;12.00;7.50;;;;;;;11.65;60.67;100792.22;688165;28;1111;-90
2023/12/20 00:05:38;;;;;;;11.65;7.57;;;;;;;11.69;60.61;100796.72;685486;28;1308;-89
2023/12/20 00:05:58;;;;;;;10.07;7.65;;;;;;;11.61;60.70;100777.31;685549;28;1290;-90
2023/12/20 00:06:19;;;;;;;11.05;8.00;;;;;;;11.72;60.71;100793.25;684935;28;1508;-90
2023/12/20 00:06:40;;;;;;;11.45;8.02;;;;;;;11.71;60.30;100796.72;685699;28;1400;-90
2023/12/20 00:07:01;;;;;;;12.32;7.93;;;;;;;11.59;60.36;100776.38;688298;28;1165;-89
2023/12/20 00:07:24;;;;;;;12.40;7.55;;;;;;;11.65;60.79;100781.78;690858;28;1379;-90
2023/12/20 00:07:45;;;;;;;12.80;7.80;;;;;;;11.67;60.51;100787.06;688106;28;1260;-90
2023/12/20 00:08:09;;;;;;;13.18;8.20;;;;;;;11.61;60.56;100779.94;682819;28;1518;-89
2023/12/20 00:08:30;;;;;;;11.98;8.02;;;;;;;11.61;60.41;100790.38;685577;28;1587;-90
2023/12/20 00:08:50;;;;;;;12.20;7.80;;;;;;;11.66;60.50;100794.00;685558;28;1155;-90
2023/12/20 00:09:11;;;;;;;11.38;7.10;;;;;;;11.63;60.51;100799.13;687451;28;1157;-90
2023/12/20 00:09:32;;;;;;;13.75;7.38;;;;;;;11.53;60.59;100782.34;691069;28;1197;-90
2023/12/20 00:09:53;;;;;;;14.27;7.15;;;;;;;11.48;60.67;100769.16;688314;28;1095;-90
2023/12/20 00:10:16;;;;;;;14.65;7.05;;;;;;;11.51;60.57;100778.81;684685;28;1230;-90
2023/12/20 00:10:37;;;;;;;12.38;7.07;;;;;;;11.46;60.84;100780.41;685296;28;1157;-91
2023/12/20 00:10:58;;;;;;;14.82;7.47;;;;;;;11.54;60.57;100791.06;687908;28;1181;-90
2023/12/20 00:11:18;;;;;;;14.13;7.60;;;;;;;11.49;60.81;100781.38;686655;28;1098;-90
2023/12/20 00:11:41;;;;;;;16.98;7.38;;;;;;;11.56;60.76;100792.00;685746;28;1255;-90
2023/12/20 00:12:02;;;;;;;13.68;7.55;;;;;;;11.58;60.72;100798.13;688349;28;1187;-90
2023/12/20 00:12:23;;;;;;;15.13;7.93;;;;;;;11.59;60.71;100797.28;692844;28;1221;-90
2023/12/20 00:12:44;;;;;;;14.33;8.47;;;;;;;11.60;60.47;100789.47;685500;28;1147;-91
2023/12/20 00:13:07;;;;;;;16.60;9.27;;;;;;;11.49;60.58;100785.75;688283;28;1145;-90
2023/12/20 00:13:28;;;;;;;14.88;9.10;;;;;;;11.46;60.67;100778.69;688294;28;1057;-90
2023/12/20 00:13:49;;;;;;;13.57;8.73;;;;;;;11.56;60.63;100799.84;688363;28;1156;-90
2023/12/20 00:14:10;;;;;;;12.80;8.00;;;;;;;11.44;60.70;100769.91;682984;28;1239;-91
2023/12/20 00:14:30;;;;;;;13.45;7.72;;;;;;;11.50;60.57;100782.28;682700;28;1208;-90
2023/12/20 00:14:51;;;;;;;12.43;7.30;;;;;;;11.56;60.58;100792.00;685560;28;1184;-90
2023/12/20 00:15:12;;;;;;;11.07;7.35;;;;;;;11.59;60.59;100792.06;687495;28;1223;-90
2023/12/20 00:15:34;;;;;;;11.25;7.57;;;;;;;11.56;60.88;100792.84;682513;28;1211;-90
2023/12/20 00:15:54;;;;;;;14.10;8.00;;;;;;;11.56;60.55;100792.84;685533;28;1302;-90
2023/12/20 00:16:15;;;;;;;12.60;7.50;;;;;;;11.43;60.52;100781.22;685954;28;1264;-90
2023/12/20 00:16:36;;;;;;;12.40;7.60;;;;;;;11.45;60.58;100784.78;685678;28;1443;-90
2023/12/20 00:16:56;;;;;;;11.10;7.30;;;;;;;11.46;60.73;100775.19;685680;28;1556;-90
2023/12/20 00:17:17;;;;;;;11.50;7.37;;;;;;;11.44;60.96;100787.34;685553;28;1236;-90
2023/12/20 00:17:38;;;;;;;12.15;7.40;;;;;;;11.38;60.54;100770.66;683086;29;1325;-90
2023/12/20 00:18:00;;;;;;;12.05;7.43;;;;;;;11.38;60.63;100762.81;682990;29;1001;-90
2023/12/20 00:18:21;;;;;;;13.00;7.40;;;;;;;11.45;60.56;100776.94;684077;28;1296;-90
2023/12/20 00:18:42;;;;;;;15.80;7.57;;;;;;;11.48;60.57;100774.38;688506;28;1236;-90
2023/12/20 00:19:03;;;;;;;18.17;7.60;;;;;;;11.48;60.53;100784.84;685049;28;1223;-90
2023/12/20 00:19:24;;;;;;;16.83;7.50;;;;;;;11.36;60.57;100768.84;690021;28;1175;-90
2023/12/20 00:19:44;;;;;;;13.38;7.50;;;;;;;11.37;60.68;100770.66;690268;28;1306;-90
2023/12/20 00:20:06;;;;;;;13.10;7.80;;;;;;;11.41;60.53;100776.84;688379;28;1194;-90
2023/12/20 00:20:27;;;;;;;12.50;7.40;;;;;;;11.46;60.56;100788.25;685681;28;1263;-90
2023/12/20 00:20:48;;;;;;;11.52;7.45;;;;;;;11.40;60.58;100778.53;687977;28;1369;-89
2023/12/20 00:21:09;;;;;;;11.27;7.38;;;;;;;11.37;60.62;100774.13;688320;28;1212;-89
2023/12/20 00:21:30;;;;;;;11.63;7.70;;;;;;;11.41;60.56;100780.31;690564;28;1312;-88
2023/12/20 00:21:50;;;;;;;11.97;8.00;;;;;;;11.40;60.70;100778.53;685679;28;1291;-90
2023/12/20 00:22:11;;;;;;;12.10;7.93;;;;;;;11.38;60.62;100786.34;685525;28;1907;-89
2023/12/20 00:22:32;;;;;;;12.90;8.00;;;;;;;11.26;60.65;100772.97;685699;28;1149;-90
2023/12/20 00:22:56;;;;;;;11.75;7.75;;;;;;;11.32;60.96;100780.09;683147;29;998;-89
2023/12/20 00:23:16;;;;;;;11.75;7.65;;;;;;;11.41;60.86;100790.75;685344;28;1266;-90
2023/12/20 00:23:37;;;;;;;11.17;7.73;;;;;;;11.34;60.85;100786.22;688413;28;1241;-91
2023/12/20 00:23:58;;;;;;;11.30;7.38;;;;;;;11.38;60.52;100788.09;685645;28;1252;-90
2023/12/20 00:24:18;;;;;;;11.20;7.18;;;;;;;11.38;60.64;100788.09;688113;28;1216;-90
2023/12/20 00:24:39;;;;;;;13.07;7.68;;;;;;;11.38;60.63;100788.09;688435;28;1144;-89
2023/12/20 00:25:00;;;;;;;12.80;7.80;;;;;;;11.41;60.46;100795.97;688299;28;1286;-89
2023/12/20 00:25:20;;;;;;;12.97;8.10;;;;;;;11.40;60.53;100799.44;684179;28;1238;-90
2023/12/20 00:25:41;;;;;;;14.07;7.82;;;;;;;11.23;60.61;100789.47;692195;28;1342;-90
2023/12/20 00:26:02;;;;;;;14.13;8.13;;;;;;;11.25;60.63;100789.50;687603;28;1285;-89
2023/12/20 00:26:28;;;;;;;13.50;8.07;;;;;;;11.26;60.74;100788.66;685413;28;1413;-89
2023/12/20 00:26:48;;;;;;;11.38;8.27;;;;;;;11.37;60.69;100808.09;688288;28;1371;-90
2023/12/20 00:27:09;;;;;;;11.85;8.15;;;;;;;11.28;60.77;100792.19;688191;28;1071;-90
2023/12/20 00:27:30;;;;;;;12.88;7.88;;;;;;;11.41;60.67;100806.44;689936;28;1455;-90
2023/12/20 00:27:50;;;;;;;11.98;7.43;;;;;;;11.30;60.67;100790.47;688175;28;1015;-90
2023/12/20 00:28:11;;;;;;;11.23;7.37;;;;;;;11.37;60.76;100807.22;685358;28;1438;-91
2023/12/20 00:28:32;;;;;;;10.65;7.35;;;;;;;11.28;60.61;100789.56;688418;28;1413;-90
2023/12/20 00:28:53;;;;;;;12.07;7.72;;;;;;;11.29;60.56;100787.84;693452;28;1495;-89
2023/12/20 00:29:14;;;;;;;16.10;8.25;;;;;;;11.37;60.55;100807.22;693241;28;1182;-90
2023/12/20 00:29:34;;;;;;;15.15;8.25;;;;;;;11.33;60.76;100807.97;690995;28;1706;-89
2023/12/20 00:29:55;;;;;;;13.55;7.95;;;;;;;11.26;60.52;100793.88;690711;28;1661;-90
2023/12/20 00:30:16;;;;;;;10.53;7.50;;;;;;;11.24;60.49;100791.22;690079;28;1617;-89
2023/12/20 00:30:37;;;;;;;11.25;7.72;;;;;;;11.36;60.30;100815.88;688291;28;1538;-91
2023/12/20 00:30:57;;;;;;;12.20;7.77;;;;;;;11.30;60.70;100810.53;688071;28;1575;-90
2023/12/20 00:31:18;;;;;;;13.02;7.80;;;;;;;11.30;60.73;100810.53;690576;28;1263;-90
2023/12/20 00:31:39;;;;;;;13.93;7.90;;;;;;;11.29;60.29;100808.75;692348;28;1220;-90
2023/12/20 00:32:00;;;;;;;14.57;7.80;;;;;;;11.20;60.42;100805.03;685664;28;921;-90
2023/12/20 00:32:20;;;;;;;12.77;7.40;;;;;;;11.23;60.40;100805.13;687019;28;1265;-90
2023/12/20 00:32:46;;;;;;;11.93;7.30;;;;;;;11.13;60.31;100800.53;687769;28;1278;-90
2023/12/20 00:33:09;;;;;;;10.75;7.53;;;;;;;11.12;60.80;100803.94;688177;28;1359;-90
2023/12/20 00:33:29;;;;;;;11.07;7.50;;;;;;;11.15;60.87;100806.66;690744;28;1237;-90
2023/12/20 00:33:50;;;;;;;12.63;7.40;;;;;;;11.24;60.62;100812.13;688176;28;1324;-90
2023/12/20 00:34:11;;;;;;;13.30;7.77;;;;;;;11.21;60.70;100804.22;682773;28;1282;-90
2023/12/20 00:34:32;;;;;;;13.32;7.78;;;;;;;11.23;60.85;100804.22;682948;29;1366;-90
2023/12/20 00:34:53;;;;;;;11.18;7.45;;;;;;;11.19;60.51;100798.03;685922;28;1173;-90
2023/12/20 00:35:17;;;;;;;12.15;7.43;;;;;;;11.27;60.64;100807.81;688659;28;1286;-90
2023/12/20 00:35:39;;;;;;;12.93;7.70;;;;;;;11.22;60.68;100803.38;693778;28;1279;-90
2023/12/20 00:36:00;;;;;;;12.88;7.72;;;;;;;11.17;60.76;100804.09;688368;28;1257;-90
2023/12/20 00:36:21;;;;;;;14.73;8.38;;;;;;;11.19;60.66;100808.50;685294;28;1225;-90
2023/12/20 00:36:41;;;;;;;13.60;8.77;;;;;;;11.17;60.93;100799.75;685728;28;1209;-91
2023/12/20 00:37:02;;;;;;;12.23;8.60;;;;;;;11.12;60.60;100780.44;689553;28;1296;-89
2023/12/20 00:37:24;;;;;;;11.95;8.70;;;;;;;11.15;60.62;100790.09;682337;28;1381;-90
2023/12/20 00:37:44;;;;;;;12.60;8.30;;;;;;;11.26;60.83;100806.03;682903;28;1037;-90
2023/12/20 00:38:06;;;;;;;15.93;8.57;;;;;;;11.24;60.67;100811.22;685640;28;1261;-90
2023/12/20 00:38:27;;;;;;;14.43;8.00;;;;;;;11.23;60.65;100804.22;685788;28;1248;-91
2023/12/20 00:38:48;;;;;;;14.60;8.00;;;;;;;11.11;60.70;100796.97;687855;28;1193;-90
2023/12/20 00:39:09;;;;;;;11.13;7.88;;;;;;;11.19;60.54;100813.72;685534;28;1241;-90
2023/12/20 00:39:30;;;;;;;11.88;7.70;;;;;;;11.21;60.82;100801.59;688186;28;1315;-90
2023/12/20 00:39:50;;;;;;;11.65;7.40;;;;;;;11.13;60.84;100803.13;685521;28;1126;-90
2023/12/20 00:40:11;;;;;;;12.95;7.43;;;;;;;11.13;60.60;100800.53;685207;28;1070;-89
2023/12/20 00:40:33;;;;;;;13.60;8.00;;;;;;;11.27;60.72;100810.41;682697;29;1314;-90
2023/12/20 00:40:53;;;;;;;15.27;8.45;;;;;;;11.16;60.71;100797.97;685842;28;1332;-90
2023/12/20 00:41:14;;;;;;;15.27;8.57;;;;;;;11.12;60.57;100790.03;683263;28;1240;-90
2023/12/20 00:41:35;;;;;;;14.00;8.20;;;;;;;11.12;60.48;100790.03;685592;28;1236;-90
2023/12/20 00:41:56;;;;;;;13.02;7.90;;;;;;;11.14;60.45;100793.56;685103;28;1444;-90
2023/12/20 00:42:16;;;;;;;11.85;7.75;;;;;;;11.20;60.45;100801.56;688035;28;1910;-90
2023/12/20 00:42:37;;;;;;;12.70;8.23;;;;;;;11.09;60.58;100791.72;685650;28;1047;-91
2023/12/20 00:42:58;;;;;;;11.60;8.23;;;;;;;11.11;60.48;100802.19;685662;28;1075;-90
2023/12/20 00:43:19;;;;;;;12.00;7.97;;;;;;;11.10;60.73;100798.72;688245;28;1228;-90
2023/12/20 00:43:44;;;;;;;11.52;7.90;;;;;;;11.12;60.60;100801.34;688410;28;1340;-90
2023/12/20 00:44:05;;;;;;;10.70;7.75;;;;;;;11.10;60.60;100797.81;690854;28;1426;-91
2023/12/20 00:44:26;;;;;;;13.23;8.30;;;;;;;11.15;60.51;100805.75;690973;28;1463;-90
2023/12/20 00:44:50;;;;;;;13.52;8.02;;;;;;;11.16;60.79;100808.44;688126;28;1398;-90
2023/12/20 00:45:11;;;;;;;11.43;7.88;;;;;;;11.24;60.73;100817.34;690803;28;1244;-91
2023/12/20 00:45:32;;;;;;;11.10;7.60;;;;;;;11.17;60.35;100794.50;685803;28;1193;-91
2023/12/20 00:45:52;;;;;;;12.27;8.40;;;;;;;11.17;60.66;100809.31;685566;28;1089;-90
2023/12/20 00:46:13;;;;;;;11.35;8.23;;;;;;;11.22;60.58;100816.44;685808;28;1150;-91
2023/12/20 00:46:34;;;;;;;11.57;8.00;;;;;;;11.20;60.53;100818.09;685681;28;828;-91
2023/12/20 00:46:57;;;;;;;15.10;7.88;;;;;;;11.25;60.35;100820.84;688135;28;1658;-90
2023/12/20 00:47:18;;;;;;;16.25;8.15;;;;;;;11.21;60.60;100811.16;690824;28;1357;-90
2023/12/20 00:47:38;;;;;;;16.60;8.07;;;;;;;11.15;60.66;100814.50;688205;28;1190;-91
2023/12/20 00:47:59;;;;;;;13.27;7.90;;;;;;;11.18;60.70;100808.47;683976;28;1706;-91
2023/12/20 00:48:23;;;;;;;14.88;8.65;;;;;;;11.23;60.49;100823.41;688425;28;1100;-90
2023/12/20 00:48:45;;;;;;;14.35;8.60;;;;;;;11.20;60.63;100809.41;685534;28;1472;-90
2023/12/20 00:49:06;;;;;;;12.88;8.07;;;;;;;11.26;60.54;100821.72;685720;28;1355;-91
2023/12/20 00:49:27;;;;;;;14.45;8.77;;;;;;;11.28;60.41;100827.84;685656;28;1184;-90
2023/12/20 00:49:48;;;;;;;15.23;9.10;;;;;;;11.14;60.56;100811.84;685388;28;1568;-91
2023/12/20 00:50:09;;;;;;;16.30;9.30;;;;;;;11.09;60.54;100796.03;685601;28;1288;-91
2023/12/20 00:50:30;;;;;;;14.05;8.55;;;;;;;11.20;60.52;100812.00;687866;28;1239;-90
2023/12/20 00:50:50;;;;;;;14.90;8.37;;;;;;;11.22;60.58;100821.66;687800;28;1138;-90
2023/12/20 00:51:11;;;;;;;15.95;8.13;;;;;;;11.15;60.66;100800.53;685626;28;1349;-92
2023/12/20 00:51:32;;;;;;;15.43;8.10;;;;;;;11.20;60.62;100801.56;688279;28;1390;-90
2023/12/20 00:51:53;;;;;;;15.32;8.48;;;;;;;11.14;60.62;100802.28;685340;28;1263;-91
2023/12/20 00:52:14;;;;;;;13.32;8.38;;;;;;;11.20;60.63;100814.63;688415;28;1146;-91
2023/12/20 00:52:35;;;;;;;16.45;9.10;;;;;;;11.22;60.85;100812.91;688338;28;1224;-91
2023/12/20 00:52:56;;;;;;;14.60;8.90;;;;;;;11.20;60.67;100798.94;685412;28;1271;-91
2023/12/20 00:53:19;;;;;;;14.40;9.18;;;;;;;11.24;60.65;100811.22;688415;28;1163;-91
2023/12/20 00:53:40;;;;;;;12.70;9.00;;;;;;;11.24;60.77;100801.66;683079;28;1260;-90
2023/12/20 00:54:01;;;;;;;13.30;9.15;;;;;;;11.26;60.80;100800.81;688620;28;1511;-91
2023/12/20 00:54:21;;;;;;;14.00;8.98;;;;;;;11.26;60.64;100803.44;690688;28;1256;-91
2023/12/20 00:54:43;;;;;;;14.18;9.05;;;;;;;11.20;60.72;100793.72;682880;28;1186;-91
2023/12/20 00:55:07;;;;;;;13.60;8.93;;;;;;;11.26;60.50;100803.44;685510;28;1308;-91
2023/12/20 00:55:28;;;;;;;12.10;8.70;;;;;;;11.22;60.67;100797.25;689545;28;1383;-90
2023/12/20 00:55:51;;;;;;;13.27;8.90;;;;;;;11.28;60.73;100807.88;687446;28;1054;-91
2023/12/20 00:56:12;;;;;;;13.40;9.02;;;;;;;11.23;60.75;100799.00;682837;28;1196;-91
2023/12/20 00:56:32;;;;;;;14.85;9.30;;;;;;;11.36;60.57;100821.09;687908;28;1161;-90
2023/12/20 00:56:53;;;;;;;13.18;8.57;;;;;;;11.33;60.56;100816.72;688236;28;1224;-91
2023/12/20 00:57:15;;;;;;;13.48;8.55;;;;;;;11.30;60.48;100816.63;685607;28;1246;-91
2023/12/20 00:57:36;;;;;;;17.98;9.07;;;;;;;11.34;61.09;100817.56;685792;28;1213;-92
2023/12/20 00:58:00;;;;;;;19.50;9.02;;;;;;;11.28;60.58;100805.25;682870;29;1146;-91
2023/12/20 00:58:20;;;;;;;17.88;8.93;;;;;;;11.39;60.74;100826.44;685554;28;1261;-91
2023/12/20 00:58:41;;;;;;;12.53;8.00;;;;;;;11.35;60.81;100814.13;685549;28;1604;-91
2023/12/20 00:59:05;;;;;;;13.15;8.77;;;;;;;11.33;60.46;100815.81;688283;28;1444;-91
2023/12/20 00:59:26;;;;;;;12.98;8.32;;;;;;;11.34;60.87;100814.97;684483;28;1198;-91
2023/12/20 00:59:47;;;;;;;14.23;9.10;;;;;;;11.38;60.96;100808.97;690396;28;1410;-92
2023/12/20 01:00:11;;;;;;;13.07;8.77;;;;;;;11.36;60.68;100801.09;690273;28;1302;-91
2023/12/20 01:00:32;;;;;;;13.25;9.00;;;;;;;11.39;60.83;100813.38;689826;28;1396;-91
2023/12/20 01:00:53;;;;;;;13.68;8.82;;;;;;;11.42;60.45;100810.81;690549;28;1277;-91
2023/12/20 01:01:15;;;;;;;13.00;8.40;;;;;;;11.52;60.73;100830.22;685749;28;1150;-91
2023/12/20 01:01:36;;;;;;;12.68;8.68;;;;;;;11.43;60.56;100799.50;685713;28;1264;-91
2023/12/20 01:01:56;;;;;;;14.32;9.02;;;;;;;11.48;60.80;100813.59;685358;28;1229;-91
2023/12/20 01:02:17;;;;;;;14.20;9.32;;;;;;;11.45;60.88;100820.47;688676;28;1969;-91
2023/12/20 01:02:38;;;;;;;14.60;8.98;;;;;;;11.46;60.77;100822.22;688571;28;1082;-90
2023/12/20 01:03:01;;;;;;;16.75;9.00;;;;;;;11.52;60.62;100828.50;688418;28;1244;-91
2023/12/20 01:03:22;;;;;;;16.40;8.95;;;;;;;11.47;60.59;100809.22;690859;28;1155;-91
2023/12/20 01:03:43;;;;;;;15.95;8.95;;;;;;;11.45;60.67;100799.56;688275;28;1324;-92
2023/12/20 01:04:04;;;;;;;16.75;8.50;;;;;;;11.46;60.70;100817.00;688146;28;1321;-91
2023/12/20 01:04:25;;;;;;;17.38;8.60;;;;;;;11.52;60.79;100828.50;685018;28;1110;-91
2023/12/20 01:04:46;;;;;;;16.58;8.80;;;;;;;11.52;60.83;100817.16;685663;28;1227;-90
2023/12/20 01:05:09;;;;;;;12.23;8.73;;;;;;;11.57;60.84;100827.72;688110;28;1145;-90
2023/12/20 01:05:29;;;;;;;13.70;8.52;;;;;;;11.63;60.60;100835.72;685435;28;1208;-91
2023/12/20 01:05:50;;;;;;;16.73;9.13;;;;;;;11.55;60.74;100822.44;688140;28;1198;-90
2023/12/20 01:06:14;;;;;;;14.73;8.90;;;;;;;11.60;60.53;100827.78;685605;28;1167;-90
2023/12/20 01:06:34;;;;;;;16.95;8.90;;;;;;;11.60;60.28;100822.56;685557;28;1454;-91
2023/12/20 01:06:55;;;;;;;14.52;8.30;;;;;;;11.55;60.29;100814.63;683769;28;1123;-91
2023/12/20 01:07:17;;;;;;;14.57;8.05;;;;;;;11.55;60.23;100816.34;688171;28;1272;-91
2023/12/20 01:07:37;;;;;;;12.33;7.57;;;;;;;11.64;60.27;100834.88;685381;28;1206;-91
2023/12/20 01:07:58;;;;;;;13.57;8.00;;;;;;;11.57;60.17;100825.13;682954;29;1141;-89
2023/12/20 01:08:19;;;;;;;14.35;8.60;;;;;;;11.54;60.49;100819.81;685274;28;1160;-91
2023/12/20 01:08:40;;;;;;;14.60;8.80;;;;;;;11.53;60.25;100813.69;685752;28;1404;-91
2023/12/20 01:09:01;;;;;;;13.95;8.68;;;;;;;11.63;60.51;100827.88;688438;28;1180;-91
2023/12/20 01:09:26;;;;;;;12.88;8.52;;;;;;;11.55;60.30;100817.22;687936;28;1495;-91
2023/12/20 01:09:49;;;;;;;13.60;8.80;;;;;;;11.47;60.67;100817.06;688442;28;1193;-90
2023/12/20 01:10:10;;;;;;;16.42;9.48;;;;;;;11.36;60.84;100811.56;685746;28;1185;-92
2023/12/20 01:10:33;;;;;;;16.42;9.18;;;;;;;11.49;60.60;100833.66;684166;28;1353;-91
2023/12/20 01:10:54;;;;;;;17.45;8.98;;;;;;;11.47;60.64;100821.38;685531;28;1503;-91
2023/12/20 01:11:15;;;;;;;16.83;8.98;;;;;;;11.43;60.61;100817.81;683029;28;1336;-91
2023/12/20 01:11:35;;;;;;;16.35;9.15;;;;;;;11.56;60.36;100833.81;685582;28;1251;-91
2023/12/20 01:11:56;;;;;;;15.02;9.50;;;;;;;11.44;60.75;100818.69;688029;28;1173;-91
2023/12/20 01:12:20;;;;;;;16.67;9.70;;;;;;;11.45;60.73;100831.81;688244;28;1365;-91
2023/12/20 01:12:41;;;;;;;17.58;9.85;;;;;;;11.42;60.85;100821.25;685590;28;1478;-92
2023/12/20 01:13:05;;;;;;;16.38;9.45;;;;;;;11.46;60.76;100827.44;682806;28;1386;-91
2023/12/20 01:13:29;;;;;;;17.30;9.27;;;;;;;11.49;60.83;100831.03;682509;29;1242;-91
2023/12/20 01:13:52;;;;;;;16.65;9.18;;;;;;;11.43;60.82;100822.16;683041;28;1268;-89
2023/12/20 01:14:15;;;;;;;17.52;9.20;;;;;;;11.47;61.00;100837.97;681864;28;1624;-91
2023/12/20 01:14:36;;;;;;;17.42;8.88;;;;;;;11.41;61.14;100821.25;688420;28;1137;-91
2023/12/20 01:14:58;;;;;;;14.77;8.50;;;;;;;11.34;61.06;100817.56;691137;28;1263;-91
2023/12/20 01:15:19;;;;;;;14.13;8.70;;;;;;;11.49;61.16;100843.22;688265;28;1335;-90
2023/12/20 01:15:40;;;;;;;13.25;8.85;;;;;;;11.51;61.23;100849.38;683672;28;1168;-91
2023/12/20 01:16:01;;;;;;;14.10;9.05;;;;;;;11.38;61.33;100824.66;685499;28;1246;-89
2023/12/20 01:16:22;;;;;;;13.60;9.10;;;;;;;11.47;61.13;100829.22;684723;28;1454;-91
2023/12/20 01:16:45;;;;;;;12.68;9.02;;;;;;;11.47;60.97;100818.75;685531;28;1614;-91
2023/12/20 01:17:06;;;;;;;13.30;9.10;;;;;;;11.64;61.04;100850.56;682765;28;1245;-92
2023/12/20 01:17:27;;;;;;;14.38;9.25;;;;;;;11.60;60.94;100835.63;687705;28;1240;-93
2023/12/20 01:17:49;;;;;;;15.25;9.48;;;;;;;11.59;60.93;100833.88;685432;28;1245;-91
2023/12/20 01:18:12;;;;;;;14.55;9.40;;;;;;;11.61;60.99;100838.28;683120;28;1192;-91
2023/12/20 01:18:33;;;;;;;15.52;9.48;;;;;;;11.54;61.21;100831.16;682780;28;1225;-91
2023/12/20 01:18:59;;;;;;;14.52;9.23;;;;;;;11.58;60.71;100839.94;688281;28;1346;-92
2023/12/20 01:19:23;;;;;;;12.57;8.48;;;;;;;11.42;61.12;100826.50;683937;28;1363;-91
2023/12/20 01:19:47;;;;;;;12.68;8.68;;;;;;;11.45;60.86;100834.44;688334;28;1245;-91
2023/12/20 01:21:30;;;;;;;12.40;8.05;;;;;;;11.41;60.54;100818.63;685585;28;1201;-91
2023/12/20 01:21:56;;;;;;;13.98;8.38;;;;;;;11.48;60.54;100842.34;688342;28;1220;-93
2023/12/20 01:22:17;;;;;;;13.60;8.30;;;;;;;11.33;60.77;100818.41;685339;28;2006;-91
2023/12/20 01:22:38;;;;;;;15.37;8.13;;;;;;;11.26;60.82;100820.00;685842;28;1050;-91
2023/12/20 01:22:59;;;;;;;16.10;8.23;;;;;;;11.30;60.69;100832.28;685602;28;1219;-92
2023/12/20 01:23:20;;;;;;;17.17;8.30;;;;;;;11.27;60.83;100811.31;685558;28;1085;-91
2023/12/20 01:23:41;;;;;;;16.70;7.95;;;;;;;11.30;60.75;100829.69;685914;28;1087;-91
2023/12/20 01:24:03;;;;;;;15.43;7.97;;;;;;;11.24;60.98;100827.78;688450;28;1323;-91
2023/12/20 01:24:26;;;;;;;13.63;7.90;;;;;;;11.20;60.90;100819.84;691077;28;1220;-91
2023/12/20 01:25:24;;;;;;;14.52;8.50;;;;;;;11.26;60.96;100834.78;691005;28;1370;-91
2023/12/20 01:25:48;;;;;;;12.25;8.63;;;;;;;11.22;61.19;100834.72;682903;28;1399;-92
2023/12/20 01:26:12;;;;;;;12.68;8.90;;;;;;;11.18;60.93;100832.84;687935;28;1399;-91
2023/12/20 01:26:33;;;;;;;15.75;9.32;;;;;;;11.23;60.92;100833.88;690431;28;1213;-91
2023/12/20 01:26:54;;;;;;;15.60;9.07;;;;;;;11.18;60.68;100832.84;685391;28;1189;-91
2023/12/20 01:27:17;;;;;;;15.80;8.98;;;;;;;11.17;60.89;100815.41;687387;28;1597;-90
2023/12/20 01:27:38;;;;;;;15.73;8.45;;;;;;;11.15;60.79;100822.34;683045;29;1126;-91
2023/12/20 01:27:59;;;;;;;16.35;8.38;;;;;;;11.15;60.93;100824.03;682801;29;1445;-92
2023/12/20 01:28:19;;;;;;;16.00;8.47;;;;;;;11.21;60.93;100832.06;688077;28;1126;-91
2023/12/20 01:28:40;;;;;;;13.43;8.10;;;;;;;11.22;61.04;100833.81;688325;28;1298;-91
2023/12/20 01:29:01;;;;;;;13.35;7.93;;;;;;;11.15;60.73;100819.72;685599;28;1157;-92
2023/12/20 01:29:22;;;;;;;13.10;8.00;;;;;;;11.17;60.94;100830.22;689417;28;1414;-92
2023/12/20 01:29:43;;;;;;;12.82;8.43;;;;;;;11.14;60.88;100825.78;691148;28;1226;-92
2023/12/20 01:30:04;;;;;;;14.32;8.50;;;;;;;11.09;61.03;100819.56;685569;28;1135;-91
2023/12/20 01:32:29;;;;;;;12.15;8.05;;;;;;;11.04;60.75;100823.75;696646;28;1315;-92
2023/12/20 01:32:50;;;;;;;10.40;7.63;;;;;;;11.01;60.80;100819.38;693786;28;1144;-91
2023/12/20 01:33:11;;;;;;;12.75;7.43;;;;;;;11.07;60.79;100842.13;688383;28;1626;-92
2023/12/20 01:33:32;;;;;;;13.50;7.28;;;;;;;11.04;60.92;100842.03;682892;28;1215;-91
2023/12/20 01:33:56;;;;;;;12.10;6.80;;;;;;;10.93;60.94;100823.47;687696;28;1087;-91
2023/12/20 01:34:17;;;;;;;9.73;6.90;;;;;;;11.02;60.94;100835.91;687883;28;1276;-91
2023/12/20 01:34:41;;;;;;;9.02;6.85;;;;;;;11.02;60.96;100836.78;687647;28;1364;-92
2023/12/20 01:35:03;;;;;;;11.13;7.22;;;;;;;10.93;60.67;100818.25;687874;28;1149;-91
2023/12/20 01:35:27;;;;;;;18.10;7.20;;;;;;;11.04;60.79;100849.88;682986;28;1371;-91
2023/12/20 01:35:54;;;;;;;18.52;7.13;;;;;;;10.93;60.71;100832.19;683062;28;1166;-92
2023/12/20 01:36:14;;;;;;;16.27;6.57;;;;;;;11.03;60.64;100848.09;685746;28;1272;-91
2023/12/20 01:36:35;;;;;;;10.65;6.47;;;;;;;10.93;60.85;100834.81;683299;28;1122;-92
2023/12/20 01:36:56;;;;;;;12.88;6.60;;;;;;;11.00;60.62;100848.91;683238;28;1300;-91
2023/12/20 01:37:20;;;;;;;11.60;6.75;;;;;;;11.01;60.66;100847.19;683148;28;1256;-91
2023/12/20 01:37:41;;;;;;;10.63;6.57;;;;;;;10.90;60.73;100829.50;685714;28;1304;-91
2023/12/20 01:38:02;;;;;;;8.87;6.43;;;;;;;10.78;60.75;100834.38;685648;28;1372;-92
2023/12/20 01:38:28;;;;;;;10.85;6.70;;;;;;;10.75;60.99;100823.88;689915;28;1323;-91
2023/12/20 01:38:49;;;;;;;12.80;6.80;;;;;;;10.85;61.14;100838.03;688747;28;1342;-92
2023/12/20 01:39:10;;;;;;;12.93;6.57;;;;;;;10.93;61.31;100836.50;685591;28;1187;-91
2023/12/20 01:39:30;;;;;;;11.68;6.40;;;;;;;10.88;60.83;100825.09;685696;28;1382;-91
2023/12/20 01:39:51;;;;;;;12.17;6.50;;;;;;;10.87;60.92;100831.16;688451;28;1544;-92
2023/12/20 01:40:15;;;;;;;12.13;6.53;;;;;;;10.80;61.43;100820.53;688543;28;1506;-91
2023/12/20 01:40:38;;;;;;;10.93;6.10;;;;;;;10.96;61.10;100849.69;682762;28;1202;-91
2023/12/20 01:41:01;;;;;;;8.05;6.00;;;;;;;10.88;61.08;100832.91;688458;28;1592;-92
2023/12/20 01:41:25;;;;;;;9.48;5.88;;;;;;;11.00;60.78;100853.25;689114;28;1140;-92
2023/12/20 01:41:53;;;;;;;8.82;5.55;;;;;;;10.90;61.08;100837.34;682877;29;1294;-91
2023/12/20 01:42:14;;;;;;;9.57;5.78;;;;;;;10.83;60.97;100822.34;682346;29;1914;-91
2023/12/20 01:42:35;;;;;;;8.68;5.70;;;;;;;10.82;61.19;100831.03;691174;28;1235;-91
2023/12/20 01:43:08;;;;;;;10.00;5.45;;;;;;;10.96;61.03;100844.44;688363;28;1280;-91
2023/12/20 01:43:29;;;;;;;13.20;6.13;;;;;;;10.84;60.68;100821.50;690055;28;1392;-91
2023/12/20 01:43:53;;;;;;;12.15;6.00;;;;;;;10.86;60.82;100827.63;683036;28;1295;-90
2023/12/20 01:44:18;;;;;;;10.10;5.45;;;;;;;10.82;60.91;100818.84;690994;28;1106;-91
2023/12/20 01:44:39;;;;;;;10.70;5.90;;;;;;;10.84;60.93;100831.94;691172;28;1241;-91
2023/12/20 01:45:00;;;;;;;11.45;5.80;;;;;;;10.80;60.82;100824.84;691643;28;1291;-92
2023/12/20 01:45:20;;;;;;;12.30;5.85;;;;;;;10.79;60.69;100817.88;693490;28;1183;-91